Time;durP1;ratioP1;P1;durP2;ratioP2;P2;SDS_P1;SDS_P2;PMS_P1;PMS_P2;Temp;Humidity;BMP_temperature;BMP_pressure;BME280_temperature;BME280_humidity;BME280_pressure;Samples;Min_cycle;Max_cycle;Signal;HPM_P1;HPM_P2
2023/07/13 00:00:08;;;;;;;1.80;1.40;;;17.60;99.90;;;;;;10152103;29;20766;-92
2023/07/13 00:05:16;;;;;;;3.72;1.35;;;17.60;99.90;;;;;;10138198;29;20267;-93
2023/07/13 00:10:19;;;;;;;1.80;1.52;;;17.50;99.90;;;;;;10161474;29;20266;-92
2023/07/13 00:15:25;;;;;;;2.65;1.38;;;17.70;99.90;;;;;;10096595;29;20308;-92
2023/07/13 00:20:27;;;;;;;1.58;1.25;;;17.60;99.90;;;;;;10116575;29;20216;-92
2023/07/13 00:25:30;;;;;;;1.77;1.10;;;17.90;99.90;;;;;;10124707;29;20232;-93
2023/07/13 00:30:33;;;;;;;3.00;1.50;;;17.90;99.90;;;;;;10134688;29;20594;-93
2023/07/13 00:35:35;;;;;;;2.85;1.75;;;18.00;99.90;;;;;;10130638;29;20260;-92
2023/07/13 00:40:38;;;;;;;4.63;1.77;;;18.00;98.40;;;;;;10127756;29;20289;-92
2023/07/13 00:45:44;;;;;;;1.60;1.33;;;17.80;99.90;;;;;;10143004;29;20315;-92
2023/07/13 00:50:50;;;;;;;2.10;1.67;;;18.20;99.90;;;;;;10120055;29;20268;-92
2023/07/13 00:55:56;;;;;;;4.22;1.38;;;18.10;99.00;;;;;;10116451;29;20243;-92
2023/07/13 01:00:59;;;;;;;4.75;1.90;;;18.00;99.30;;;;;;10146606;29;20311;-93
2023/07/13 01:06:02;;;;;;;1.70;1.60;;;18.20;99.40;;;;;;10115101;29;20277;-92
2023/07/13 01:11:04;;;;;;;2.47;1.55;;;18.00;99.60;;;;;;10131004;29;20247;-92
2023/07/13 01:16:18;;;;;;;2.90;1.65;;;17.70;99.40;;;;;;10129204;29;20299;-91
2023/07/13 01:21:20;;;;;;;1.13;0.93;;;17.80;99.90;;;;;;10131066;29;20280;-94
2023/07/13 01:26:23;;;;;;;2.10;1.45;;;17.90;99.90;;;;;;10146835;29;20288;-93
2023/07/13 01:31:26;;;;;;;2.67;1.40;;;18.20;99.90;;;;;;10115093;29;20313;-93
2023/07/13 01:36:28;;;;;;;2.92;1.77;;;18.00;99.90;;;;;;10146033;29;20658;-93
2023/07/13 01:41:31;;;;;;;4.82;1.90;;;18.10;99.90;;;;;;10114885;29;20296;-93
2023/07/13 01:46:34;;;;;;;6.63;1.83;;;18.20;99.90;;;;;;10113446;29;20260;-94
2023/07/13 01:51:36;;;;;;;2.95;1.15;;;18.30;99.90;;;;;;10130148;29;21086;-95
2023/07/13 01:56:41;;;;;;;4.80;1.98;;;18.70;99.90;;;;;;10129218;29;20699;-94
2023/07/13 02:01:44;;;;;;;1.23;0.93;;;18.80;99.10;;;;;;10128743;29;20287;-93
2023/07/13 02:06:46;;;;;;;2.42;1.20;;;19.10;99.90;;;;;;10113309;29;20248;-93
2023/07/13 02:11:51;;;;;;;4.10;1.30;;;19.40;99.00;;;;;;10129212;29;20323;-93
2023/07/13 02:16:53;;;;;;;1.08;0.98;;;19.50;97.60;;;;;;10129892;29;20224;-93
2023/07/13 02:21:56;;;;;;;0.60;0.60;;;19.40;96.80;;;;;;10129078;29;20658;-93
2023/07/13 02:26:59;;;;;;;1.30;1.02;;;19.60;99.10;;;;;;10137884;29;20209;-93
2023/07/13 02:32:01;;;;;;;2.97;1.40;;;19.60;95.50;;;;;;10129624;29;20316;-93
2023/07/13 02:37:04;;;;;;;2.47;1.58;;;19.70;94.70;;;;;;10129770;29;20580;-94
2023/07/13 02:42:07;;;;;;;3.70;1.30;;;19.40;95.70;;;;;;10113076;29;20309;-94
2023/07/13 02:47:10;;;;;;;2.13;1.63;;;19.10;95.80;;;;;;10130010;29;20228;-94
2023/07/13 02:52:12;;;;;;;1.52;1.20;;;18.90;96.40;;;;;;10099464;29;20224;-93
2023/07/13 02:57:15;;;;;;;5.68;1.42;;;18.90;97.30;;;;;;10103477;29;20227;-93
2023/07/13 03:02:18;;;;;;;2.05;1.20;;;18.80;97.50;;;;;;10139803;29;20255;-94
2023/07/13 03:07:20;;;;;;;2.72;1.63;;;18.70;97.10;;;;;;10159309;29;20243;-94
2023/07/13 03:12:26;;;;;;;4.05;1.83;;;18.80;98.80;;;;;;10135985;29;20211;-94
2023/07/13 03:17:28;;;;;;;1.80;1.50;;;18.90;98.80;;;;;;10137450;29;20228;-95
2023/07/13 03:22:32;;;;;;;1.70;1.20;;;19.30;98.80;;;;;;10140443;29;20262;-94
2023/07/13 03:27:36;;;;;;;2.75;1.80;;;19.40;99.40;;;;;;10151846;29;20216;-94
2023/07/13 03:32:40;;;;;;;2.00;1.70;;;19.50;97.40;;;;;;10139723;29;20288;-93
2023/07/13 03:37:43;;;;;;;2.13;2.00;;;19.50;98.70;;;;;;10119627;29;20243;-94
2023/07/13 03:42:51;;;;;;;3.47;2.40;;;19.30;98.40;;;;;;10119900;29;20292;-94
2023/07/13 03:47:53;;;;;;;3.00;2.67;;;19.00;99.10;;;;;;10120073;29;20263;-93
2023/07/13 03:52:58;;;;;;;3.30;2.25;;;19.00;99.80;;;;;;10103765;29;20251;-94
2023/07/13 03:58:31;;;;;;;3.33;2.47;;;18.90;99.90;;;;;;10133517;29;20260;-93
2023/07/13 04:03:41;;;;;;;3.13;2.88;;;18.90;99.90;;;;;;10119670;29;20330;-93
2023/07/13 04:08:44;;;;;;;2.67;2.05;;;19.00;99.90;;;;;;10129599;29;20782;-94
2023/07/13 04:13:47;;;;;;;12.43;3.17;;;19.20;99.90;;;;;;10145626;29;20244;-95
2023/07/13 04:18:54;;;;;;;1.48;1.33;;;19.20;99.90;;;;;;10147895;29;20212;-95
2023/07/13 04:23:57;;;;;;;2.03;1.75;;;19.30;99.90;;;;;;10119522;29;20240;-94
2023/07/13 04:29:00;;;;;;;4.20;3.38;;;19.70;99.90;;;;;;10163332;29;20435;-94
2023/07/13 04:34:03;;;;;;;3.88;3.38;;;19.60;99.90;;;;;;10120539;29;20240;-95
2023/07/13 04:39:06;;;;;;;3.90;3.30;;;19.40;99.90;;;;;;10118189;29;20284;-93
2023/07/13 04:44:09;;;;;;;3.10;2.55;;;19.40;99.90;;;;;;10122075;29;20239;-94
2023/07/13 04:49:12;;;;;;;3.60;2.90;;;19.60;99.90;;;;;;10164604;29;20224;-95
2023/07/13 04:54:24;;;;;;;2.47;2.28;;;19.80;99.90;;;;;;10168787;29;20212;-95
2023/07/13 04:59:27;;;;;;;3.38;3.08;;;20.10;99.90;;;;;;10174216;29;20297;-96
2023/07/13 05:04:29;;;;;;;3.53;2.72;;;20.40;99.90;;;;;;10175061;29;20227;-95
2023/07/13 05:09:32;;;;;;;3.92;2.88;;;20.70;99.90;;;;;;10169910;29;20201;-95
2023/07/13 05:14:35;;;;;;;3.83;3.20;;;20.90;99.30;;;;;;10173323;29;20318;-96
2023/07/13 05:19:37;;;;;;;3.92;2.88;;;21.00;98.90;;;;;;10174022;29;20560;-95
2023/07/13 05:24:40;;;;;;;3.90;2.90;;;21.10;98.80;;;;;;10166901;29;20259;-94
2023/07/13 05:29:43;;;;;;;3.30;2.95;;;21.20;98.30;;;;;;10177883;29;20208;-95
2023/07/13 05:34:45;;;;;;;5.70;4.68;;;21.20;98.40;;;;;;10171899;29;20220;-95
2023/07/13 05:39:48;;;;;;;4.40;3.47;;;21.00;99.40;;;;;;10170998;29;20272;-95
2023/07/13 05:44:51;;;;;;;4.80;3.80;;;20.70;99.90;;;;;;10168438;29;20813;-96
2023/07/13 05:49:54;;;;;;;5.38;4.68;;;20.70;99.90;;;;;;10192428;29;20255;-93
2023/07/13 05:54:56;;;;;;;4.57;3.70;;;20.60;99.90;;;;;;10171636;29;20243;-94
2023/07/13 05:59:59;;;;;;;6.43;3.13;;;20.60;99.90;;;;;;10150092;29;20235;-94
2023/07/13 06:05:02;;;;;;;4.70;3.83;;;20.80;99.90;;;;;;10164234;29;20235;-94
2023/07/13 06:10:05;;;;;;;9.55;5.07;;;20.90;99.90;;;;;;10152685;29;20216;-93
2023/07/13 06:15:08;;;;;;;4.00;3.65;;;21.00;99.90;;;;;;10175572;29;20208;-94
2023/07/13 06:20:10;;;;;;;8.20;4.30;;;20.90;99.90;;;;;;10150049;29;20582;-94
2023/07/13 06:25:13;;;;;;;3.42;2.83;;;20.70;99.90;;;;;;10164902;29;20267;-94
2023/07/13 06:30:19;;;;;;;6.65;2.90;;;20.80;99.70;;;;;;10170515;29;20265;-94
2023/07/13 06:35:27;;;;;;;4.63;3.58;;;20.90;99.80;;;;;;10181945;29;20274;-95
2023/07/13 06:40:33;;;;;;;2.80;2.60;;;21.00;99.60;;;;;;10171776;29;20224;-93
2023/07/13 06:45:48;;;;;;;7.60;5.35;;;21.10;99.20;;;;;;10171925;29;20778;-94
2023/07/13 06:50:51;;;;;;;4.03;3.17;;;21.10;99.90;;;;;;10130382;29;20690;-95
2023/07/13 06:55:54;;;;;;;1.38;1.17;;;21.10;99.70;;;;;;10113065;29;20303;-92
2023/07/13 07:00:57;;;;;;;3.63;2.10;;;21.30;98.10;;;;;;10122308;29;20663;-90
2023/07/13 07:06:16;;;;;;;3.17;2.15;;;21.80;96.70;;;;;;10121611;29;20264;-94
2023/07/13 07:11:22;;;;;;;2.42;1.80;;;22.20;95.50;;;;;;10127964;29;20245;-93
2023/07/13 07:16:25;;;;;;;4.63;3.63;;;22.50;93.90;;;;;;10113963;29;20718;-94
2023/07/13 07:21:28;;;;;;;8.65;6.55;;;22.60;93.50;;;;;;10098833;29;20321;-93
2023/07/13 07:26:31;;;;;;;7.10;4.68;;;22.50;94.30;;;;;;10089976;29;20268;-94
2023/07/13 07:31:46;;;;;;;5.70;5.07;;;22.60;94.70;;;;;;10125051;29;20240;-94
2023/07/13 07:36:51;;;;;;;8.45;6.13;;;22.70;94.70;;;;;;10107585;29;20252;-94
2023/07/13 07:41:57;;;;;;;4.45;4.00;;;22.60;94.00;;;;;;10127763;29;20573;-93
2023/07/13 07:47:00;;;;;;;4.80;3.97;;;22.60;93.60;;;;;;10134827;29;20859;-94
2023/07/13 07:52:03;;;;;;;4.90;3.28;;;22.90;94.30;;;;;;10123169;29;20244;-94
2023/07/13 07:57:08;;;;;;;3.90;3.50;;;23.10;91.70;;;;;;10140155;29;20937;-93
2023/07/13 08:02:13;;;;;;;3.10;2.30;;;23.20;91.00;;;;;;10111398;29;20742;-94
2023/07/13 08:07:40;;;;;;;6.32;3.22;;;23.20;90.50;;;;;;10132434;29;20311;-94
2023/07/13 08:12:43;;;;;;;3.58;1.80;;;23.30;90.50;;;;;;10114622;29;20247;-92
2023/07/13 08:18:08;;;;;;;4.03;2.35;;;23.60;87.80;;;;;;10116434;29;20730;-92
2023/07/13 08:23:11;;;;;;;3.95;2.95;;;23.90;85.90;;;;;;10116328;29;20388;-94
2023/07/13 08:28:13;;;;;;;4.13;3.30;;;24.00;85.40;;;;;;10130931;29;20239;-94
2023/07/13 08:33:20;;;;;;;3.58;2.45;;;24.10;81.60;;;;;;10116940;29;20248;-94
2023/07/13 08:38:23;;;;;;;1.95;1.75;;;24.20;81.90;;;;;;10115651;29;20316;-93
2023/07/13 08:43:34;;;;;;;6.22;3.08;;;24.50;79.30;;;;;;10143736;29;20259;-92
2023/07/13 08:48:50;;;;;;;3.90;2.80;;;24.80;73.30;;;;;;10124010;29;20275;-92
2023/07/13 08:53:55;;;;;;;4.72;2.92;;;;;;;;;;10130011;29;20277;-92
2023/07/13 08:59:16;;;;;;;2.85;2.42;;;24.90;71.00;;;;;;10134591;29;20248;-93
2023/07/13 09:04:23;;;;;;;2.97;2.40;;;25.00;70.50;;;;;;10130705;29;20271;-91
2023/07/13 09:09:37;;;;;;;3.40;3.08;;;25.10;73.30;;;;;;10114486;29;20928;-91
2023/07/13 09:14:50;;;;;;;3.35;2.88;;;25.00;70.10;;;;;;10129892;29;20679;-93
2023/07/13 09:20:13;;;;;;;2.97;2.47;;;24.90;70.70;;;;;;10113592;29;20294;-94
2023/07/13 09:25:27;;;;;;;2.53;2.33;;;24.90;70.40;;;;;;10043971;29;20860;-94
2023/07/13 09:30:46;;;;;;;69.35;19.30;;;24.70;70.40;;;;;;10032074;29;20299;-94
2023/07/13 09:35:49;;;;;;;31.98;8.77;;;24.90;71.40;;;;;;10032615;29;20241;-93
2023/07/13 09:41:20;;;;;;;12.45;3.55;;;25.00;71.50;;;;;;10037728;29;20812;-93
2023/07/13 09:46:23;;;;;;;3.95;2.60;;;25.20;70.10;;;;;;10044749;29;20269;-94
2023/07/13 09:51:26;;;;;;;3.33;2.75;;;25.40;66.90;;;;;;10039564;29;20233;-93
2023/07/13 09:56:30;;;;;;;1.20;1.10;;;25.50;61.40;;;;;;10025745;29;20325;-94
2023/07/13 10:01:38;;;;;;;1.67;1.58;;;25.90;62.60;;;;;;10092483;29;20244;-94
2023/07/13 10:06:42;;;;;;;4.63;3.70;;;26.20;63.00;;;;;;10124278;29;20758;-94
2023/07/13 10:11:46;;;;;;;2.20;1.77;;;26.30;54.10;;;;;;10129369;29;20913;-94
2023/07/13 10:17:03;;;;;;;5.13;3.47;;;26.30;55.40;;;;;;10128911;29;20236;-94
2023/07/13 10:22:22;;;;;;;5.70;3.10;;;26.20;55.00;;;;;;10112271;29;20252;-95
2023/07/13 10:27:36;;;;;;;4.57;2.15;;;26.10;54.50;;;;;;10117232;29;20271;-93
2023/07/13 10:32:39;;;;;;;1.27;1.15;;;26.30;53.10;;;;;;10097661;29;20212;-93
2023/07/13 10:37:53;;;;;;;3.67;2.63;;;26.40;53.30;;;;;;10110424;29;20252;-93
2023/07/13 10:43:00;;;;;;;4.38;2.25;;;26.50;52.40;;;;;;10109796;29;20308;-94
2023/07/13 10:48:05;;;;;;;2.83;2.38;;;26.50;51.60;;;;;;10133777;29;20296;-94
2023/07/13 11:00:18;;;;;;;1.33;1.23;;;26.50;50.10;;;;;;10133001;29;20192;-93
2023/07/13 11:05:30;;;;;;;1.00;0.98;;;26.40;51.20;;;;;;10127795;29;20264;-91
2023/07/13 11:10:53;;;;;;;0.82;0.82;;;26.40;51.20;;;;;;10126618;29;20300;-91
2023/07/13 11:15:59;;;;;;;4.93;3.05;;;26.70;50.00;;;;;;10117190;29;20215;-91
2023/07/13 11:21:14;;;;;;;1.35;1.23;;;26.80;45.80;;;;;;10140329;29;20279;-91
2023/07/13 11:26:47;;;;;;;1.48;1.35;;;26.90;47.00;;;;;;10120187;29;20272;-91
2023/07/13 11:31:55;;;;;;;2.75;2.10;;;27.10;42.60;;;;;;10117240;29;20232;-91
2023/07/13 11:37:00;;;;;;;2.53;1.63;;;27.10;44.70;;;;;;10118351;29;20244;-91
2023/07/13 11:42:09;;;;;;;1.80;1.30;;;27.00;43.70;;;;;;10118352;29;20701;-91
2023/07/13 11:47:20;;;;;;;2.80;1.92;;;27.00;45.10;;;;;;10133941;29;21042;-92
2023/07/13 11:52:33;;;;;;;3.00;2.65;;;27.20;44.20;;;;;;10133091;29;20689;-92
2023/07/13 11:57:44;;;;;;;2.53;1.48;;;27.10;42.60;;;;;;10136568;29;20248;-91
2023/07/13 12:02:53;;;;;;;1.40;1.30;;;27.20;43.20;;;;;;10122172;29;20774;-92
2023/07/13 12:07:55;;;;;;;1.88;1.40;;;27.10;42.80;;;;;;10132793;29;20306;-92
2023/07/13 12:13:04;;;;;;;3.30;1.27;;;27.00;43.10;;;;;;10115480;29;20243;-90
2023/07/13 12:18:14;;;;;;;1.65;1.55;;;27.00;41.90;;;;;;10120256;29;20717;-91
2023/07/13 12:23:20;;;;;;;4.85;1.95;;;27.20;40.20;;;;;;10130601;29;20319;-92
2023/07/13 12:28:37;;;;;;;1.92;1.52;;;27.40;40.90;;;;;;10130194;29;20268;-92
2023/07/13 12:33:41;;;;;;;5.68;2.17;;;27.30;38.30;;;;;;10115187;29;20247;-92
2023/07/13 12:38:46;;;;;;;5.50;2.13;;;27.40;35.20;;;;;;10137145;29;20247;-92
2023/07/13 12:43:49;;;;;;;1.98;1.50;;;27.40;32.20;;;;;;10130936;29;20252;-90
2023/07/13 12:48:53;;;;;;;4.55;2.00;;;27.30;34.70;;;;;;10136063;29;20320;-90
2023/07/13 12:54:19;;;;;;;1.70;1.48;;;27.10;30.60;;;;;;10129894;29;20240;-90
2023/07/13 12:59:25;;;;;;;1.35;1.13;;;27.10;35.50;;;;;;10130093;29;20244;-91
2023/07/13 13:04:28;;;;;;;1.35;1.20;;;27.10;31.60;;;;;;10130061;29;20647;-90
2023/07/13 13:09:40;;;;;;;1.75;1.63;;;27.10;29.20;;;;;;10122434;29;20363;-91
2023/07/13 13:14:45;;;;;;;2.22;1.15;;;27.10;29.20;;;;;;10120799;29;20247;-91
2023/07/13 13:20:13;;;;;;;1.42;1.33;;;26.90;25.30;;;;;;10133228;29;20254;-91
2023/07/13 13:25:16;;;;;;;1.63;1.52;;;26.90;23.70;;;;;;10086774;29;20261;-83
2023/07/13 13:30:18;;;;;;;2.50;1.20;;;27.00;29.50;;;;;;10090514;29;20238;-83
2023/07/13 13:35:21;;;;;;;2.45;1.50;;;27.00;33.70;;;;;;10091172;29;20244;-83
2023/07/13 13:40:26;;;;;;;1.77;1.10;;;26.80;16.30;;;;;;10090971;29;20680;-83
2023/07/13 13:45:29;;;;;;;4.38;1.67;;;26.90;28.90;;;;;;10092952;29;20300;-82
2023/07/13 13:50:32;;;;;;;1.38;1.27;;;27.00;23.30;;;;;;10091143;29;20245;-83
2023/07/13 13:55:35;;;;;;;2.28;1.50;;;27.00;24.90;;;;;;10090549;29;20263;-83
2023/07/13 14:00:38;;;;;;;1.63;1.35;;;27.20;25.40;;;;;;10089121;29;20253;-83
2023/07/13 14:05:45;;;;;;;1.73;1.58;;;27.10;31.10;;;;;;10097380;29;20723;-82
2023/07/13 14:10:53;;;;;;;1.88;1.63;;;27.00;29.30;;;;;;10089488;29;20244;-83
2023/07/13 14:15:56;;;;;;;1.77;1.45;;;26.90;20.40;;;;;;10122995;29;20307;-83
2023/07/13 14:20:59;;;;;;;2.33;1.60;;;26.70;27.10;;;;;;10100926;29;20259;-83
2023/07/13 14:26:01;;;;;;;2.17;1.40;;;26.80;25.10;;;;;;10178265;29;20284;-83
2023/07/13 14:31:05;;;;;;;1.80;1.70;;;26.60;23.20;;;;;;10169251;29;20275;-82
2023/07/13 14:36:30;;;;;;;7.88;2.25;;;26.70;27.30;;;;;;10167448;29;20278;-82
2023/07/13 14:41:33;;;;;;;3.05;1.70;;;26.70;28.80;;;;;;10167491;29;20626;-82
2023/07/13 14:46:35;;;;;;;1.55;1.45;;;26.90;25.10;;;;;;10125695;29;20263;-82
2023/07/13 14:51:38;;;;;;;2.80;1.50;;;27.00;30.00;;;;;;10159642;29;20242;-82
2023/07/13 14:56:41;;;;;;;2.10;1.35;;;27.00;27.00;;;;;;10139532;29;20623;-82
2023/07/13 15:01:43;;;;;;;2.65;1.67;;;27.00;28.40;;;;;;10155116;29;20242;-83
2023/07/13 15:07:02;;;;;;;1.52;1.40;;;26.90;27.10;;;;;;10179833;29;20754;-83
2023/07/13 15:12:05;;;;;;;1.60;1.50;;;26.80;27.70;;;;;;10178625;29;20618;-83
2023/07/13 15:17:31;;;;;;;1.65;1.20;;;26.80;25.70;;;;;;10179477;29;20243;-82
2023/07/13 15:22:34;;;;;;;2.10;1.90;;;26.70;23.10;;;;;;10179877;29;20275;-83
2023/07/13 15:27:38;;;;;;;2.15;1.70;;;26.70;25.90;;;;;;10161353;29;20647;-83
2023/07/13 15:32:44;;;;;;;1.70;1.60;;;26.70;28.50;;;;;;10146622;29;20714;-84
2023/07/13 15:37:48;;;;;;;5.15;1.63;;;26.70;24.30;;;;;;10161937;29;20247;-81
2023/07/13 15:42:50;;;;;;;6.20;1.45;;;26.70;21.40;;;;;;10177943;29;20243;-84
2023/07/13 15:47:53;;;;;;;2.08;1.15;;;26.60;20.30;;;;;;10174217;29;20393;-82
2023/07/13 15:52:58;;;;;;;4.28;1.40;;;26.60;17.70;;;;;;10177795;29;20275;-84
2023/07/13 15:58:01;;;;;;;3.60;1.23;;;26.60;15.10;;;;;;10179866;29;20255;-84
2023/07/13 16:03:04;;;;;;;2.63;1.30;;;26.60;15.00;;;;;;10177258;29;20247;-85
2023/07/13 16:08:27;;;;;;;2.70;1.52;;;26.50;11.10;;;;;;10156825;29;20279;-84
2023/07/13 16:13:30;;;;;;;1.65;1.42;;;26.50;13.80;;;;;;10156932;29;20234;-84
2023/07/13 16:18:33;;;;;;;4.28;1.38;;;26.50;15.50;;;;;;10173258;29;20290;-84
2023/07/13 16:23:36;;;;;;;1.25;1.15;;;26.50;13.60;;;;;;10156378;29;20326;-84
2023/07/13 16:29:00;;;;;;;2.63;1.20;;;26.60;15.60;;;;;;10172976;29;20362;-84
2023/07/13 16:34:03;;;;;;;2.53;1.15;;;26.60;16.60;;;;;;10173018;29;20294;-84
2023/07/13 16:39:14;;;;;;;2.13;1.15;;;26.70;16.00;;;;;;10155591;29;20250;-84
2023/07/13 16:44:20;;;;;;;3.40;1.35;;;26.60;16.10;;;;;;10172681;29;20247;-84
2023/07/13 16:49:28;;;;;;;2.00;1.23;;;26.70;16.60;;;;;;10169506;29;20642;-83
2023/07/13 16:54:34;;;;;;;2.63;1.02;;;26.60;17.40;;;;;;10166930;29;20226;-84
2023/07/13 16:59:37;;;;;;;4.07;1.95;;;26.60;12.20;;;;;;10455904;23;20245;-84
2023/07/13 17:04:41;;;;;;;4.22;1.52;;;26.30;11.30;;;;;;10248932;29;20267;-85
2023/07/13 17:09:45;;;;;;;3.38;1.85;;;26.20;12.90;;;;;;10228744;29;20290;-85
2023/07/13 17:14:48;;;;;;;2.20;1.77;;;26.30;13.30;;;;;;10230461;28;20237;-84
2023/07/13 17:19:52;;;;;;;3.10;1.23;;;26.40;16.80;;;;;;10232415;29;20265;-84
2023/07/13 17:24:55;;;;;;;3.88;1.48;;;26.60;18.00;;;;;;10249784;29;20266;-85
2023/07/13 17:30:01;;;;;;;2.72;1.63;;;26.60;17.60;;;;;;10246930;29;20688;-85
2023/07/13 17:35:24;;;;;;;3.63;1.42;;;26.70;18.30;;;;;;10252959;23;20312;-93
2023/07/13 17:40:27;;;;;;;3.35;1.50;;;26.70;17.10;;;;;;10247773;29;20262;-92
2023/07/13 17:45:31;;;;;;;3.90;1.48;;;26.80;17.10;;;;;;10241051;28;20344;-92
2023/07/13 17:50:35;;;;;;;2.13;1.15;;;26.80;18.30;;;;;;10251885;28;20215;-95
2023/07/13 17:55:38;;;;;;;3.35;1.25;;;26.70;18.90;;;;;;10222193;29;20683;-93
2023/07/13 18:00:43;;;;;;;3.60;1.20;;;26.60;18.50;;;;;;10277704;28;20237;-92
2023/07/13 18:05:47;;;;;;;3.33;2.08;;;26.70;20.00;;;;;;10233027;28;20783;-92
2023/07/13 18:10:49;;;;;;;2.25;1.50;;;26.60;19.60;;;;;;10270002;28;20266;-91
2023/07/13 18:15:53;;;;;;;1.52;1.40;;;26.50;20.00;;;;;;10222193;29;20670;-91
2023/07/13 18:20:56;;;;;;;3.47;1.40;;;26.20;20.40;;;;;;10237044;28;20314;-92
2023/07/13 18:25:58;;;;;;;1.73;1.40;;;26.10;20.80;;;;;;10254423;28;20268;-91
2023/07/13 18:31:01;;;;;;;2.38;1.85;;;25.90;21.20;;;;;;10268006;28;20282;-91
2023/07/13 18:36:05;;;;;;;2.38;1.52;;;25.60;22.00;;;;;;10227001;29;20265;-91
2023/07/13 18:41:14;;;;;;;2.25;1.38;;;25.20;23.50;;;;;;10241425;28;20680;-92
2023/07/13 18:46:23;;;;;;;2.03;1.30;;;25.00;23.40;;;;;;10229875;28;20262;-93
2023/07/13 18:51:26;;;;;;;1.83;1.30;;;24.80;24.60;;;;;;10275947;28;20662;-91
2023/07/13 18:56:31;;;;;;;2.00;1.48;;;24.60;26.30;;;;;;10263993;28;20300;-92
2023/07/13 19:01:35;;;;;;;4.15;1.75;;;24.40;26.90;;;;;;9895508;28;9999886;-92
2023/07/13 19:06:38;;;;;;;3.40;1.60;;;24.20;25.30;;;;;;10245401;28;20269;-91
2023/07/13 19:11:40;;;;;;;2.40;1.40;;;23.90;27.90;;;;;;10256483;28;20304;-92
2023/07/13 19:16:43;;;;;;;2.38;1.75;;;23.50;28.10;;;;;;10244243;28;20245;-91
2023/07/13 19:21:49;;;;;;;6.43;2.00;;;23.20;29.50;;;;;;10283368;28;20810;-92
2023/07/13 19:26:52;;;;;;;2.15;1.92;;;23.00;30.00;;;;;;10254709;28;20297;-92
2023/07/13 19:31:55;;;;;;;2.88;2.15;;;22.80;31.40;;;;;;10282898;28;20261;-92
2023/07/13 19:37:05;;;;;;;1.95;1.70;;;22.60;32.30;;;;;;10253306;28;20261;-92
2023/07/13 19:42:17;;;;;;;5.93;2.50;;;22.20;34.50;;;;;;10290355;28;20986;-92
2023/07/13 19:47:19;;;;;;;2.05;1.88;;;22.00;36.20;;;;;;10264728;28;20254;-93
2023/07/13 19:52:27;;;;;;;5.28;2.20;;;21.70;38.00;;;;;;10249200;28;20269;-93
2023/07/13 19:57:30;;;;;;;2.95;1.98;;;21.40;40.70;;;;;;10265002;28;20387;-92
2023/07/13 20:02:33;;;;;;;2.25;1.60;;;21.10;42.00;;;;;;10289570;28;20237;-91
2023/07/13 20:07:36;;;;;;;2.97;1.88;;;21.10;43.70;;;;;;10289988;28;20770;-91
2023/07/13 20:12:39;;;;;;;3.40;1.75;;;21.00;47.10;;;;;;10271760;28;20250;-92
2023/07/13 20:17:43;;;;;;;4.07;1.55;;;20.90;48.80;;;;;;10232241;28;20301;-92
2023/07/13 20:22:46;;;;;;;3.55;2.75;;;21.00;51.90;;;;;;10249054;29;20234;-92
2023/07/13 20:27:51;;;;;;;2.83;2.10;;;21.00;53.20;;;;;;10248833;28;20261;-93
2023/07/13 20:32:55;;;;;;;3.13;1.92;;;20.90;55.80;;;;;;10247537;28;20295;-93
2023/07/13 20:38:00;;;;;;;2.55;1.92;;;20.90;57.90;;;;;;10263718;28;20277;-92
2023/07/13 20:43:03;;;;;;;2.30;1.67;;;20.90;60.60;;;;;;10288593;28;20252;-92
2023/07/13 20:48:28;;;;;;;1.40;1.20;;;20.90;62.70;;;;;;10281423;28;20265;-93
2023/07/13 20:53:30;;;;;;;2.03;1.80;;;21.10;63.80;;;;;;10247286;28;20289;-91
2023/07/13 20:58:33;;;;;;;2.22;2.05;;;21.10;64.50;;;;;;10262004;28;20824;-92
2023/07/13 21:03:35;;;;;;;3.22;1.58;;;21.10;62.90;;;;;;10282156;28;20241;-92
2023/07/13 21:08:38;;;;;;;2.63;1.80;;;21.20;62.90;;;;;;10287949;28;20296;-92
2023/07/13 21:13:40;;;;;;;5.18;1.90;;;21.50;62.40;;;;;;10269650;28;20656;-92
2023/07/13 21:18:43;;;;;;;2.40;2.13;;;21.70;58.80;;;;;;10266960;28;20628;-92
2023/07/13 21:23:46;;;;;;;1.30;1.20;;;21.80;58.10;;;;;;10265404;28;20269;-94
2023/07/13 21:28:52;;;;;;;0.90;0.90;;;22.00;59.30;;;;;;10260306;28;20276;-93
2023/07/13 21:33:58;;;;;;;1.50;1.30;;;22.10;59.70;;;;;;10247049;28;20253;-93
2023/07/13 21:39:04;;;;;;;1.95;1.75;;;22.00;56.60;;;;;;10258854;28;20277;-93
2023/07/13 21:44:29;;;;;;;2.53;1.60;;;21.90;56.30;;;;;;10285848;28;20254;-92
2023/07/13 21:49:32;;;;;;;1.73;1.58;;;21.80;54.90;;;;;;10295003;28;20268;-94
2023/07/13 21:54:34;;;;;;;3.08;1.77;;;22.20;53.70;;;;;;10292005;28;20747;-93
2023/07/13 21:59:37;;;;;;;1.88;1.60;;;22.50;46.40;;;;;;10283859;28;20237;-93
2023/07/13 22:04:40;;;;;;;2.00;1.80;;;22.60;51.10;;;;;;10285635;28;20233;-94
2023/07/13 22:09:42;;;;;;;2.22;2.03;;;22.60;49.50;;;;;;10283175;28;20261;-94
2023/07/13 22:14:45;;;;;;;1.50;1.20;;;22.60;48.30;;;;;;10287370;28;20202;-95
2023/07/13 22:19:51;;;;;;;3.50;2.70;;;22.30;50.90;;;;;;10282872;28;20237;-93
2023/07/13 22:24:54;;;;;;;5.95;1.98;;;22.00;41.70;;;;;;10304534;28;20595;-96
2023/07/13 22:29:57;;;;;;;2.88;1.67;;;21.90;48.00;;;;;;10294015;28;20284;-96
2023/07/13 22:35:00;;;;;;;3.38;1.90;;;21.90;53.60;;;;;;10310841;28;20242;-96
2023/07/13 22:40:16;;;;;;;2.78;1.88;;;21.40;48.40;;;;;;10280671;28;20263;-96
2023/07/13 22:45:18;;;;;;;2.88;1.60;;;21.00;55.80;;;;;;10244975;29;20214;-96
2023/07/13 22:50:21;;;;;;;2.25;1.60;;;21.00;58.70;;;;;;10265510;28;20278;-96
2023/07/13 22:55:24;;;;;;;2.15;1.50;;;21.00;60.20;;;;;;10267574;28;20214;-96
2023/07/13 23:00:27;;;;;;;4.30;2.30;;;20.90;60.00;;;;;;10268013;28;20566;-95
2023/07/13 23:05:30;;;;;;;4.72;2.15;;;20.60;59.80;;;;;;10270668;28;20211;-96
2023/07/13 23:10:33;;;;;;;3.28;1.88;;;20.50;63.00;;;;;;10265822;29;20230;-96
2023/07/13 23:15:35;;;;;;;2.17;1.70;;;20.40;66.40;;;;;;10282862;28;20669;-96
2023/07/13 23:20:38;;;;;;;1.30;1.20;;;20.20;66.90;;;;;;10279335;28;20273;-96
2023/07/13 23:25:40;;;;;;;2.95;1.45;;;20.20;71.90;;;;;;10273464;28;20214;-96
2023/07/13 23:30:46;;;;;;;1.20;1.00;;;20.10;72.60;;;;;;10254291;29;20281;-96
2023/07/13 23:35:54;;;;;;;3.00;2.22;;;19.90;77.10;;;;;;10268864;28;20273;-96
2023/07/13 23:40:57;;;;;;;4.03;1.80;;;19.90;73.50;;;;;;10294866;28;20209;-96
2023/07/13 23:46:00;;;;;;;4.15;2.20;;;19.60;75.10;;;;;;10317012;28;20217;-96
2023/07/13 23:51:02;;;;;;;3.70;1.58;;;18.90;78.10;;;;;;10296871;28;20981;-96
2023/07/13 23:56:17;;;;;;;2.55;1.70;;;18.50;84.50;;;;;;10307557;28;20912;-96
